createdAt,value
2018-09-09T00:00:46.831Z,95918.36
2018-09-09T00:03:17.845Z,95917.02
2018-09-09T00:08:26.184Z,95924.17
2018-09-09T00:10:55.244Z,95920.60
2018-09-09T00:13:24.309Z,95920.58
2018-09-09T00:15:56.562Z,95920.14
2018-09-09T00:18:26.577Z,95919.34
2018-09-09T00:23:31.345Z,95924.77
2018-09-09T00:28:36.093Z,95926.23
2018-09-09T00:31:07.108Z,95927.25
2018-09-09T00:33:36.177Z,95928.16
2018-09-09T00:36:05.234Z,95923.39
2018-09-09T00:38:34.305Z,95925.55
2018-09-09T00:43:39.086Z,95930.20
2018-09-09T00:46:08.185Z,95930.25
2018-09-09T00:48:37.260Z,95936.01
2018-09-09T00:56:17.790Z,95937.87
2018-09-09T00:58:46.857Z,95932.08
2018-09-09T01:01:15.917Z,95933.47
2018-09-09T01:03:45.034Z,95934.05
2018-09-09T01:21:54.541Z,95932.91
2018-09-09T01:24:23.684Z,95930.91
2018-09-09T01:26:57.614Z,95931.80
2018-09-09T01:32:03.503Z,95935.62
2018-09-09T01:34:33.516Z,95934.81
2018-09-09T01:39:42.778Z,95934.41
2018-09-09T01:42:25.453Z,95933.66
2018-09-09T01:44:56.514Z,95935.95
2018-09-09T01:50:01.287Z,95935.02
2018-09-09T01:52:39.956Z,95931.41
2018-09-09T01:55:09.012Z,95931.34
2018-09-09T01:57:42.375Z,95928.69
2018-09-09T02:02:47.167Z,95938.52
2018-09-09T02:05:16.341Z,95938.03
2018-09-09T02:07:45.410Z,95937.16
2018-09-09T02:14:12.260Z,95929.13
2018-09-09T02:16:41.333Z,95930.60
2018-09-09T02:19:10.393Z,95930.75
2018-09-09T02:24:15.383Z,95932.53
2018-09-09T02:26:44.438Z,95932.40
2018-09-09T02:29:15.395Z,95942.06
2018-09-09T02:31:44.446Z,95942.68
2018-09-09T02:34:16.917Z,95936.27
2018-09-09T02:36:46.938Z,95934.57
2018-09-09T02:41:51.712Z,95938.62
2018-09-09T02:44:20.782Z,95937.99
2018-09-09T02:46:51.834Z,95931.69
2018-09-09T02:51:56.625Z,95937.62
2018-09-09T02:54:25.684Z,95935.70
2018-09-09T02:56:55.689Z,95938.45
2018-09-09T02:59:25.730Z,95938.17
2018-09-09T03:04:30.501Z,95944.45
2018-09-09T03:06:59.560Z,95942.00
2018-09-09T03:09:30.617Z,95941.45
2018-09-09T03:12:00.718Z,95939.40
2018-09-09T03:14:29.759Z,95941.40
2018-09-09T03:16:58.834Z,95944.49
2018-09-09T03:19:27.888Z,95947.61
2018-09-09T03:21:56.964Z,95945.97
2018-09-09T03:24:26.016Z,95943.42
2018-09-09T03:26:55.080Z,95946.45
2018-09-09T03:29:24.152Z,95948.11
2018-09-09T03:31:55.169Z,95947.90
2018-09-09T03:34:24.243Z,95946.77
2018-09-09T03:36:53.336Z,95951.76
2018-09-09T03:39:22.393Z,95951.16
2018-09-09T03:41:55.044Z,95949.97
2018-09-09T03:44:26.014Z,95950.89
2018-09-09T03:46:56.010Z,95948.33
2018-09-09T03:49:26.042Z,95947.25
2018-09-09T03:54:32.341Z,95947.63
2018-09-09T03:57:03.364Z,95949.13
2018-09-09T03:59:33.396Z,95950.77
2018-09-09T04:02:05.761Z,95953.09
2018-09-09T04:07:10.550Z,95952.28
2018-09-09T04:09:39.627Z,95957.00
2018-09-09T04:12:09.627Z,95955.26
2018-09-09T04:14:43.638Z,95958.17
2018-09-09T04:19:48.407Z,95962.71
2018-09-09T04:22:19.385Z,95963.27
2018-09-09T04:24:48.466Z,95959.67
2018-09-09T04:27:19.470Z,95960.53
2018-09-09T04:29:48.528Z,95964.78
2018-09-09T04:32:17.591Z,95966.21
2018-09-09T04:34:50.978Z,95963.42
2018-09-09T04:39:59.309Z,95966.72
2018-09-09T04:42:28.392Z,95968.73
2018-09-09T04:44:57.485Z,95972.53
2018-09-09T04:52:38.137Z,95985.59
2018-09-09T04:55:15.593Z,95988.21
2018-09-09T04:57:45.714Z,95990.16
2018-09-09T05:00:15.733Z,95993.45
2018-09-09T05:02:52.934Z,95987.89
2018-09-09T05:05:22.950Z,95992.92
2018-09-09T05:10:27.763Z,96000.52
2018-09-09T05:12:56.844Z,96001.51
2018-09-09T05:15:26.912Z,95997.06
2018-09-09T05:20:31.706Z,95997.92
2018-09-09T05:23:00.774Z,96002.73
2018-09-09T05:25:44.660Z,96006.53
2018-09-09T05:28:13.724Z,96003.58
2018-09-09T05:30:48.578Z,96009.63
2018-09-09T05:35:56.561Z,96012.98
2018-09-09T05:38:25.981Z,96016.09
2018-09-09T05:40:55.040Z,96018.64
2018-09-09T05:43:24.128Z,96023.19
2018-09-09T05:45:53.192Z,96019.98
2018-09-09T05:53:33.783Z,96022.86
2018-09-09T05:56:03.813Z,96016.76
2018-09-09T05:58:32.885Z,96015.27
2018-09-09T06:03:41.225Z,96015.52
2018-09-09T06:06:10.296Z,96014.24
2018-09-09T06:08:52.492Z,96010.98
2018-09-09T06:11:21.556Z,96010.55
2018-09-09T06:13:50.612Z,96011.36
2018-09-09T06:16:22.992Z,96009.94
2018-09-09T06:18:52.066Z,96009.27
2018-09-09T06:21:23.117Z,96008.13
2018-09-09T06:26:27.904Z,96002.55
2018-09-09T06:39:19.937Z,95992.55
2018-09-09T06:41:48.993Z,95993.91
2018-09-09T06:44:18.050Z,95991.34
2018-09-09T06:46:50.548Z,95992.66
2018-09-09T06:52:03.795Z,95994.91
2018-09-09T06:57:08.574Z,95996.87
2018-09-09T07:04:49.285Z,96007.64
2018-09-09T07:09:54.305Z,96014.30
2018-09-09T07:12:28.106Z,96014.11
2018-09-09T07:17:41.588Z,96021.69
2018-09-09T07:22:46.525Z,96025.02
2018-09-09T07:25:15.477Z,96021.67
2018-09-09T07:27:44.524Z,96018.95
2018-09-09T07:30:13.576Z,96017.29
2018-09-09T07:32:44.536Z,96015.98
2018-09-09T07:35:14.552Z,96020.52
2018-09-09T07:37:48.801Z,96023.84
2018-09-09T07:42:54.576Z,96029.51
2018-09-09T07:45:29.484Z,96028.70
2018-09-09T07:47:59.570Z,96028.97
2018-09-09T07:50:29.568Z,96028.78
2018-09-09T07:53:00.588Z,96029.89
2018-09-09T07:55:30.590Z,96033.53
2018-09-09T08:05:47.974Z,96038.73
2018-09-09T08:10:52.731Z,96041.45
2018-09-09T08:13:21.776Z,96046.09
2018-09-09T08:15:50.856Z,96043.46
2018-09-09T08:18:19.947Z,96039.97
2018-09-09T08:20:57.804Z,96038.27
2018-09-09T08:31:14.091Z,96039.97
2018-09-09T08:36:18.945Z,96040.45
2018-09-09T08:38:47.989Z,96041.56
2018-09-09T08:41:17.035Z,96044.72
2018-09-09T08:43:49.724Z,96041.95
2018-09-09T08:46:19.709Z,96037.10
2018-09-09T08:51:24.487Z,96045.80
2018-09-09T08:53:54.490Z,96041.04
2018-09-09T08:56:24.508Z,96036.64
2018-09-09T08:59:04.567Z,96036.72
2018-09-09T09:01:35.622Z,96044.86
2018-09-09T09:09:17.145Z,96029.53
2018-09-09T09:11:46.243Z,96027.19
2018-09-09T09:14:15.278Z,96031.05
2018-09-09T09:16:44.325Z,96028.01
2018-09-09T09:19:14.445Z,96034.23
2018-09-09T09:21:43.498Z,96035.58
2018-09-09T09:24:12.592Z,96036.01
2018-09-09T09:26:41.650Z,96029.03
2018-09-09T09:29:11.010Z,96023.08
2018-09-09T09:31:40.060Z,96021.58
2018-09-09T09:34:11.101Z,96022.34
2018-09-09T09:36:41.112Z,96014.50
2018-09-09T09:39:11.165Z,96018.05
2018-09-09T09:41:40.184Z,96011.78
2018-09-09T09:46:45.621Z,96005.88
2018-09-09T09:49:15.657Z,96006.78
2018-09-09T09:51:44.689Z,96005.07
2018-09-09T09:54:13.734Z,96004.22
2018-09-09T09:59:18.596Z,96001.84
2018-09-09T10:01:47.691Z,96002.33
2018-09-09T10:04:16.731Z,96008.02
2018-09-09T10:06:45.793Z,96010.20
2018-09-09T10:11:50.654Z,96004.80
2018-09-09T10:14:19.717Z,96003.91
2018-09-09T10:16:48.761Z,96013.50
2018-09-09T10:19:17.952Z,96012.81
2018-09-09T10:29:36.342Z,96007.31
2018-09-09T10:34:42.196Z,96005.20
2018-09-09T10:37:12.225Z,96005.44
2018-09-09T10:39:41.277Z,96008.34
2018-09-09T10:42:12.263Z,96003.59
2018-09-09T10:44:41.293Z,96000.74
2018-09-09T10:47:10.536Z,95996.00
2018-09-09T10:49:39.509Z,95997.63
2018-09-09T10:54:44.784Z,95998.65
2018-09-09T10:57:14.836Z,96006.84
2018-09-09T10:59:45.969Z,96000.31
2018-09-09T11:02:16.002Z,95998.33
2018-09-09T11:04:54.151Z,95999.81
2018-09-09T11:09:58.893Z,95998.86
2018-09-09T11:12:27.959Z,95995.17
2018-09-09T11:14:57.010Z,95991.72
2018-09-09T11:17:26.162Z,95989.48
2018-09-09T11:19:55.207Z,95989.14
2018-09-09T11:25:01.158Z,95981.97
2018-09-09T11:27:34.146Z,95980.20
2018-09-09T11:30:05.168Z,95975.57
2018-09-09T11:32:35.183Z,95970.45
2018-09-09T11:35:04.241Z,95967.22
2018-09-09T11:40:09.171Z,95965.11
2018-09-09T11:42:38.240Z,95974.50
2018-09-09T11:45:07.287Z,95964.64
2018-09-09T11:47:36.342Z,95976.16
2018-09-09T11:52:41.154Z,95961.72
2018-09-09T11:55:10.279Z,95959.98
2018-09-09T11:57:40.319Z,95962.13
2018-09-09T12:00:09.369Z,95962.25
2018-09-09T12:02:38.415Z,95959.75
2018-09-09T12:05:07.460Z,95959.69
2018-09-09T12:07:36.568Z,95961.66
2018-09-09T12:10:05.562Z,95967.83
2018-09-09T12:12:34.613Z,95967.66
2018-09-09T12:17:39.473Z,95963.56
2018-09-09T12:20:13.577Z,95964.58
2018-09-09T12:22:43.590Z,95959.31
2018-09-09T12:27:48.657Z,95963.28
2018-09-09T12:30:18.653Z,95964.30
2018-09-09T12:32:47.716Z,95961.98
2018-09-09T12:37:52.675Z,95962.69
2018-09-09T12:40:21.835Z,95955.31
2018-09-09T12:42:50.866Z,95957.30
2018-09-09T12:51:10.082Z,95949.52
2018-09-09T12:53:39.103Z,95958.08
2018-09-09T12:56:08.164Z,95959.88
2018-09-09T12:58:37.279Z,95954.64
2018-09-09T13:01:08.350Z,95957.01
2018-09-09T13:06:15.231Z,95952.93
2018-09-09T13:08:44.285Z,95951.63
2018-09-09T13:11:13.354Z,95953.01
2018-09-09T13:13:42.409Z,95950.31
2018-09-09T13:16:11.463Z,95953.67
2018-09-09T13:18:41.439Z,95954.59
2018-09-09T13:21:10.503Z,95958.80
2018-09-09T13:23:40.581Z,95961.73
2018-09-09T13:28:45.482Z,95958.86
2018-09-09T13:33:54.976Z,95944.66
2018-09-09T13:36:25.060Z,95942.73
2018-09-09T13:38:58.836Z,95944.72
2018-09-09T13:44:03.694Z,95939.43
2018-09-09T13:46:33.658Z,95944.36
2018-09-09T13:49:02.733Z,95946.33
2018-09-09T13:51:31.774Z,95945.52
2018-09-09T13:54:04.833Z,95930.77
2018-09-09T13:56:33.854Z,95936.14
2018-09-09T13:59:02.911Z,95935.42
2018-09-09T14:04:08.449Z,95930.04
2018-09-09T14:06:37.490Z,95929.61
2018-09-09T14:09:08.475Z,95937.20
2018-09-09T14:11:37.528Z,95933.33
2018-09-09T14:14:06.576Z,95922.95
2018-09-09T14:16:35.641Z,95919.75
2018-09-09T14:19:04.720Z,95924.52
2018-09-09T14:24:09.681Z,95926.16
2018-09-09T14:26:38.734Z,95926.63
2018-09-09T14:31:44.615Z,95926.75
2018-09-09T14:34:13.684Z,95928.95
2018-09-09T14:36:42.737Z,95934.65
2018-09-09T14:41:47.665Z,95928.79
2018-09-09T14:44:16.744Z,95922.31
2018-09-09T14:46:46.757Z,95921.92
2018-09-09T14:49:15.832Z,95919.23
2018-09-09T14:51:45.285Z,95928.12
2018-09-09T14:54:15.285Z,95920.42
2018-09-09T14:56:45.309Z,95922.59
2018-09-09T14:59:15.327Z,95928.83
2018-09-09T15:01:44.385Z,95919.92
2018-09-09T15:06:49.365Z,95922.73
2018-09-09T15:09:20.295Z,95922.67
2018-09-09T15:11:49.346Z,95914.80
2018-09-09T15:16:54.108Z,95918.61
2018-09-09T15:19:23.325Z,95914.83
2018-09-09T15:21:52.380Z,95918.52
2018-09-09T15:24:22.406Z,95912.86
2018-09-09T15:26:52.404Z,95917.69
2018-09-09T15:29:21.449Z,95919.92
2018-09-09T15:31:50.489Z,95924.13
2018-09-09T15:34:19.570Z,95921.43
2018-09-09T15:36:48.630Z,95921.19
2018-09-09T15:39:17.710Z,95924.21
2018-09-09T15:41:46.777Z,95923.10
2018-09-09T15:44:17.014Z,95923.37
2018-09-09T15:46:46.071Z,95933.64
2018-09-09T15:51:52.854Z,95926.08
2018-09-09T15:54:22.089Z,95928.91
2018-09-09T15:56:51.134Z,95933.19
2018-09-09T15:59:23.293Z,95932.47
2018-09-09T16:01:52.336Z,95930.55
2018-09-09T16:04:21.600Z,95930.52
2018-09-09T16:06:50.979Z,95935.80
2018-09-09T16:09:20.039Z,95933.55
2018-09-09T16:11:49.151Z,95932.80
2018-09-09T16:14:18.178Z,95937.08
2018-09-09T16:16:49.153Z,95938.54
2018-09-09T16:19:19.257Z,95939.94
2018-09-09T16:21:50.217Z,95942.27
2018-09-09T16:24:19.340Z,95940.83
2018-09-09T16:26:54.038Z,95942.53
2018-09-09T16:31:59.829Z,95949.63
2018-09-09T16:34:29.832Z,95955.86
2018-09-09T16:39:35.727Z,95952.77
2018-09-09T16:44:43.961Z,95949.95
2018-09-09T16:47:14.974Z,95952.09
2018-09-09T16:49:44.028Z,95951.77
2018-09-09T16:52:16.657Z,95950.11
2018-09-09T16:57:21.554Z,95952.72
2018-09-09T16:59:50.596Z,95953.59
2018-09-09T17:02:19.637Z,95950.38
2018-09-09T17:04:49.644Z,95952.80
2018-09-09T17:07:18.670Z,95959.72
2018-09-09T17:09:47.924Z,95959.69
2018-09-09T17:12:26.129Z,95961.47
2018-09-09T17:14:56.177Z,95964.22
2018-09-09T17:17:29.642Z,95963.86
2018-09-09T17:20:04.379Z,95967.00
2018-09-09T17:22:33.409Z,95964.25
2018-09-09T17:25:07.085Z,95964.34
2018-09-09T17:27:36.157Z,95960.08
2018-09-09T17:30:07.129Z,95959.74
2018-09-09T17:32:39.592Z,95960.48
2018-09-09T17:35:08.645Z,95965.17
2018-09-09T17:37:37.712Z,95964.44
2018-09-09T17:40:06.775Z,95969.25
2018-09-09T17:42:35.811Z,95967.63
2018-09-09T17:45:04.861Z,95970.47
2018-09-09T17:47:35.840Z,95970.14
2018-09-09T17:50:04.884Z,95970.22
2018-09-09T17:52:33.954Z,95975.30
2018-09-09T17:55:02.997Z,95973.98
2018-09-09T17:57:32.080Z,95977.03
2018-09-09T18:00:01.148Z,95976.86
2018-09-09T18:02:30.196Z,95980.60
2018-09-09T18:04:59.249Z,95983.02
2018-09-09T18:07:29.228Z,95984.43
2018-09-09T18:09:58.278Z,95987.89
2018-09-09T18:12:29.280Z,95990.94
2018-09-09T18:14:58.324Z,95995.66
2018-09-09T18:20:05.114Z,95994.76
2018-09-09T18:22:34.187Z,95995.95
2018-09-09T18:27:39.004Z,96006.28
2018-09-09T18:30:08.053Z,96006.34
2018-09-09T18:32:38.015Z,96015.41
2018-09-09T18:35:07.093Z,96014.66
2018-09-09T18:37:39.848Z,96010.77
2018-09-09T18:40:10.876Z,96017.41
2018-09-09T18:45:15.712Z,96019.69
2018-09-09T18:47:45.772Z,96021.52
2018-09-09T18:50:14.793Z,96018.83
2018-09-09T18:55:19.788Z,96016.37
2018-09-09T18:57:48.793Z,96022.34
2018-09-09T19:00:17.845Z,96022.92
2018-09-09T19:05:22.678Z,96022.30
2018-09-09T19:07:51.793Z,96021.66
2018-09-09T19:10:20.816Z,96024.85
2018-09-09T19:12:50.048Z,96025.96
2018-09-09T19:15:19.186Z,96026.38
2018-09-09T19:17:48.216Z,96031.45
2018-09-09T19:20:18.309Z,96029.44
2018-09-09T19:22:49.314Z,96026.45
2018-09-09T19:25:19.483Z,96030.81
2018-09-09T19:27:48.508Z,96025.60
2018-09-09T19:30:17.705Z,96028.64
2018-09-09T19:32:46.744Z,96027.67
2018-09-09T19:35:16.783Z,96030.16
2018-09-09T19:37:46.798Z,96034.41
2018-09-09T19:40:15.832Z,96034.16
2018-09-09T19:42:44.921Z,96036.02
2018-09-09T19:47:49.769Z,96041.34
2018-09-09T19:50:18.805Z,96040.94
2018-09-09T19:52:47.908Z,96037.63
2018-09-09T19:57:53.718Z,96027.25
2018-09-09T20:02:58.478Z,96028.34
2018-09-09T20:05:27.545Z,96029.66
2018-09-09T20:07:56.590Z,96031.32
2018-09-09T20:10:25.658Z,96038.02
2018-09-09T20:12:54.745Z,96042.49
2018-09-09T20:15:23.806Z,96039.63
2018-09-09T20:17:52.896Z,96034.61
2018-09-09T20:20:22.882Z,96042.02
2018-09-09T20:25:28.147Z,96035.89
2018-09-09T20:27:57.188Z,96037.00
2018-09-09T20:30:26.258Z,96050.31
2018-09-09T20:32:55.325Z,96052.20
2018-09-09T20:35:26.287Z,96055.39
2018-09-09T20:37:56.356Z,96057.36
2018-09-09T20:40:25.421Z,96058.77
2018-09-09T20:42:55.385Z,96059.23
2018-09-09T20:45:24.449Z,96054.55
2018-09-09T20:50:29.285Z,96059.52
2018-09-09T20:52:58.352Z,96057.69
2018-09-09T20:55:27.394Z,96062.27
2018-09-09T20:57:57.378Z,96060.34
2018-09-09T21:03:02.148Z,96055.17
2018-09-09T21:05:32.137Z,96051.39
2018-09-09T21:08:02.174Z,96054.52
2018-09-09T21:13:06.946Z,96053.23
2018-09-09T21:15:36.025Z,96054.00
2018-09-09T21:18:07.076Z,96053.33
2018-09-09T21:20:36.132Z,96052.50
2018-09-09T21:23:05.205Z,96052.61
2018-09-09T21:25:34.263Z,96051.50
2018-09-09T21:28:05.325Z,96048.20
2018-09-09T21:30:35.327Z,96044.22
2018-09-09T21:35:40.101Z,96042.52
2018-09-09T21:38:09.169Z,96046.94
2018-09-09T21:40:38.228Z,96046.38
2018-09-09T21:43:07.266Z,96045.63
2018-09-09T21:45:37.284Z,96043.77
2018-09-09T21:48:07.321Z,96042.98
2018-09-09T21:53:12.090Z,96037.31
2018-09-09T21:55:41.154Z,96042.63
2018-09-09T21:58:10.236Z,96047.19
2018-09-09T22:00:39.286Z,96049.07
2018-09-09T22:03:09.283Z,96051.80
2018-09-09T22:08:14.066Z,96055.80
2018-09-09T22:10:43.151Z,96056.02
2018-09-09T22:13:12.224Z,96049.25
2018-09-09T22:15:41.287Z,96055.39
2018-09-09T22:18:10.354Z,96054.85
2018-09-09T22:20:39.423Z,96058.06
2018-09-09T22:23:08.469Z,96058.54
2018-09-09T22:28:13.307Z,96062.94
2018-09-09T22:30:42.369Z,96059.86
2018-09-09T22:33:12.449Z,96062.81
2018-09-09T22:35:41.510Z,96059.78
2018-09-09T22:38:10.575Z,96066.25
2018-09-09T22:40:39.633Z,96065.16
2018-09-09T22:43:08.688Z,96067.98
2018-09-09T22:45:38.710Z,96067.17
2018-09-09T22:48:07.773Z,96067.91
2018-09-09T22:50:36.823Z,96069.39
2018-09-09T22:53:07.851Z,96071.33
2018-09-09T22:55:36.902Z,96073.60
2018-09-09T22:58:05.951Z,96072.42
2018-09-09T23:00:35.021Z,96079.84
2018-09-09T23:03:04.081Z,96083.98
2018-09-09T23:05:37.501Z,96079.42
2018-09-09T23:08:07.469Z,96078.88
2018-09-09T23:10:36.525Z,96079.68
2018-09-09T23:13:05.591Z,96084.98
2018-09-09T23:15:34.661Z,96082.69
2018-09-09T23:18:03.732Z,96084.64
2018-09-09T23:20:32.796Z,96084.69
2018-09-09T23:23:01.856Z,96081.14
2018-09-09T23:25:30.921Z,96077.85
2018-09-09T23:27:59.970Z,96079.56
2018-09-09T23:30:29.053Z,96074.78
2018-09-09T23:32:59.073Z,96070.69
2018-09-09T23:35:28.140Z,96074.78
2018-09-09T23:37:57.393Z,96077.02
2018-09-09T23:40:26.449Z,96070.62
2018-09-09T23:42:56.578Z,96069.46
2018-09-09T23:45:25.621Z,96063.61
2018-09-09T23:47:56.646Z,96057.05
2018-09-09T23:50:26.653Z,96055.88
2018-09-09T23:52:56.681Z,96052.97
2018-09-09T23:55:26.737Z,96058.23
